createdAt,value
2022-12-11T00:00:05.559Z,88.67
2022-12-11T00:00:15.583Z,88.56
2022-12-11T00:00:25.633Z,88.46
2022-12-11T00:00:35.638Z,88.46
2022-12-11T00:00:45.563Z,88.35
2022-12-11T00:00:55.654Z,88.35
2022-12-11T00:01:05.621Z,88.35
2022-12-11T00:01:15.567Z,88.24
2022-12-11T00:01:25.603Z,88.24
2022-12-11T00:01:35.587Z,88.14
2022-12-11T00:01:45.613Z,88.14
2022-12-11T00:01:55.676Z,88.14
2022-12-11T00:02:05.596Z,88.04
2022-12-11T00:02:15.590Z,88.04
2022-12-11T00:02:25.703Z,88.04
2022-12-11T00:02:35.631Z,88.14
2022-12-11T00:02:45.636Z,88.14
2022-12-11T00:02:55.690Z,88.14
2022-12-11T00:03:05.589Z,88.24
2022-12-11T00:03:16.422Z,88.24
2022-12-11T00:03:25.749Z,88.24
2022-12-11T00:03:35.574Z,88.24
2022-12-11T00:03:45.580Z,88.35
2022-12-11T00:03:55.655Z,88.35
2022-12-11T00:04:05.528Z,88.35
2022-12-11T00:04:15.552Z,88.35
2022-12-11T00:04:25.528Z,88.35
2022-12-11T00:04:35.611Z,88.35
2022-12-11T00:04:45.623Z,88.35
2022-12-11T00:04:55.637Z,88.35
2022-12-11T00:05:05.654Z,88.35
2022-12-11T00:05:15.657Z,88.35
2022-12-11T00:05:25.549Z,88.35
2022-12-11T00:05:35.639Z,88.46
2022-12-11T00:05:45.587Z,88.46
2022-12-11T00:05:55.571Z,88.46
2022-12-11T00:06:05.648Z,88.46
2022-12-11T00:06:15.619Z,88.46
2022-12-11T00:06:25.609Z,88.35
2022-12-11T00:06:35.572Z,88.35
2022-12-11T00:06:45.647Z,88.24
2022-12-11T00:06:55.627Z,88.14
2022-12-11T00:07:05.550Z,88.07
2022-12-11T00:07:15.538Z,87.87
2022-12-11T00:07:25.557Z,87.66
2022-12-11T00:07:35.556Z,87.55
2022-12-11T00:07:45.614Z,87.34
2022-12-11T00:07:55.569Z,87.34
2022-12-11T00:08:05.629Z,87.34
2022-12-11T00:08:15.651Z,87.34
2022-12-11T00:08:25.684Z,87.34
2022-12-11T00:08:35.564Z,87.45
2022-12-11T00:08:45.581Z,87.55
2022-12-11T00:08:55.592Z,87.76
2022-12-11T00:09:05.554Z,87.87
2022-12-11T00:09:15.562Z,87.97
2022-12-11T00:09:25.599Z,88.07
2022-12-11T00:09:35.528Z,88.18
2022-12-11T00:09:45.549Z,88.29
2022-12-11T00:09:55.645Z,88.29
2022-12-11T00:10:05.534Z,88.39
2022-12-11T00:10:15.642Z,88.39
2022-12-11T00:10:25.583Z,88.49
2022-12-11T00:10:38.020Z,88.49
2022-12-11T00:10:45.649Z,88.60
2022-12-11T00:10:55.554Z,88.60
2022-12-11T00:11:05.577Z,88.71
2022-12-11T00:11:15.525Z,88.85
2022-12-11T00:11:25.629Z,88.85
2022-12-11T00:11:35.579Z,88.81
2022-12-11T00:11:45.553Z,88.96
2022-12-11T00:11:55.537Z,88.96
2022-12-11T00:12:05.524Z,88.96
2022-12-11T00:12:15.556Z,89.06
2022-12-11T00:12:25.534Z,89.06
2022-12-11T00:12:35.543Z,89.17
2022-12-11T00:12:45.528Z,89.17
2022-12-11T00:12:55.640Z,89.27
2022-12-11T00:13:05.648Z,89.27
2022-12-11T00:13:15.524Z,89.37
2022-12-11T00:13:25.530Z,89.37
2022-12-11T00:13:35.638Z,89.48
2022-12-11T00:13:45.644Z,89.48
2022-12-11T00:13:55.654Z,89.59
2022-12-11T00:14:05.548Z,89.69
2022-12-11T00:14:15.558Z,89.79
2022-12-11T00:14:25.658Z,90.00
2022-12-11T00:14:35.544Z,90.11
2022-12-11T00:14:45.617Z,90.22
2022-12-11T00:14:55.607Z,90.22
2022-12-11T00:15:05.592Z,90.32
2022-12-11T00:15:15.614Z,90.42
2022-12-11T00:15:25.619Z,90.42
2022-12-11T00:15:35.594Z,90.42
2022-12-11T00:15:45.633Z,90.53
2022-12-11T00:15:55.555Z,90.53
2022-12-11T00:16:05.655Z,90.64
2022-12-11T00:16:15.713Z,90.64
2022-12-11T00:16:27.235Z,90.64
2022-12-11T00:16:35.639Z,90.64
2022-12-11T00:16:45.624Z,90.64
2022-12-11T00:16:55.599Z,90.53
2022-12-11T00:17:05.647Z,90.53
2022-12-11T00:17:15.578Z,90.42
2022-12-11T00:17:25.635Z,90.32
2022-12-11T00:17:35.657Z,90.22
2022-12-11T00:17:45.561Z,90.11
2022-12-11T00:18:00.519Z,90.00
2022-12-11T00:18:05.657Z,90.00
2022-12-11T00:18:15.525Z,89.90
2022-12-11T00:18:25.531Z,89.90
2022-12-11T00:18:35.624Z,89.79
2022-12-11T00:18:45.658Z,89.79
2022-12-11T00:18:55.565Z,89.79
2022-12-11T00:19:05.577Z,89.84
2022-12-11T00:19:15.568Z,89.79
2022-12-11T00:19:25.604Z,89.90
2022-12-11T00:19:35.630Z,89.94
2022-12-11T00:19:45.577Z,89.90
2022-12-11T00:19:55.656Z,90.05
2022-12-11T00:20:05.552Z,90.00
2022-12-11T00:20:15.537Z,90.00
2022-12-11T00:20:25.656Z,90.15
2022-12-11T00:20:35.658Z,90.11
2022-12-11T00:20:45.579Z,90.11
2022-12-11T00:20:55.560Z,90.22
2022-12-11T00:21:05.539Z,90.22
2022-12-11T00:21:15.549Z,90.11
2022-12-11T00:21:25.558Z,90.11
2022-12-11T00:21:35.638Z,90.11
2022-12-11T00:21:45.541Z,90.22
2022-12-11T00:21:55.626Z,90.22
2022-12-11T00:22:05.574Z,90.22
2022-12-11T00:22:15.601Z,90.32
2022-12-11T00:22:25.645Z,90.32
2022-12-11T00:22:35.668Z,90.42
2022-12-11T00:22:45.545Z,90.42
2022-12-11T00:22:55.640Z,90.42
2022-12-11T00:23:05.554Z,90.53
2022-12-11T00:23:15.649Z,90.53
2022-12-11T00:23:25.567Z,90.53
2022-12-11T00:23:35.648Z,90.64
2022-12-11T00:23:45.525Z,90.53
2022-12-11T00:23:55.645Z,90.53
2022-12-11T00:24:05.622Z,90.53
2022-12-11T00:24:15.524Z,90.42
2022-12-11T00:24:25.524Z,90.38
2022-12-11T00:24:35.660Z,90.28
2022-12-11T00:24:45.544Z,90.28
2022-12-11T00:24:55.618Z,90.17
2022-12-11T00:25:05.607Z,90.07
2022-12-11T00:25:15.534Z,89.97
2022-12-11T00:25:25.648Z,89.86
2022-12-11T00:25:35.535Z,89.65
2022-12-11T00:25:45.648Z,89.54
2022-12-11T00:25:55.660Z,89.44
2022-12-11T00:26:05.626Z,89.34
2022-12-11T00:26:15.552Z,89.23
2022-12-11T00:26:25.525Z,89.12
2022-12-11T00:26:35.644Z,89.12
2022-12-11T00:26:45.600Z,89.02
2022-12-11T00:26:55.620Z,89.02
2022-12-11T00:27:05.601Z,89.02
2022-12-11T00:27:15.575Z,89.02
2022-12-11T00:27:25.597Z,89.02
2022-12-11T00:27:35.554Z,89.02
2022-12-11T00:27:45.643Z,89.02
2022-12-11T00:27:56.167Z,88.92
2022-12-11T00:28:05.653Z,88.92
2022-12-11T00:28:15.655Z,88.81
2022-12-11T00:28:25.635Z,88.71
2022-12-11T00:28:35.618Z,88.60
2022-12-11T00:28:45.598Z,88.49
2022-12-11T00:28:55.554Z,88.39
2022-12-11T00:29:05.525Z,88.39
2022-12-11T00:29:15.554Z,88.29
2022-12-11T00:29:25.650Z,88.29
2022-12-11T00:29:35.572Z,88.18
2022-12-11T00:29:45.666Z,88.18
2022-12-11T00:29:55.568Z,88.18
2022-12-11T00:30:05.561Z,88.18
2022-12-11T00:30:15.623Z,88.18
2022-12-11T00:30:25.541Z,88.29
2022-12-11T00:30:35.655Z,88.29
2022-12-11T00:30:45.612Z,88.39
2022-12-11T00:30:55.600Z,88.39
2022-12-11T00:31:05.554Z,88.39
2022-12-11T00:31:15.643Z,88.39
2022-12-11T00:31:25.680Z,88.29
2022-12-11T00:31:35.684Z,88.18
2022-12-11T00:31:45.642Z,87.97
2022-12-11T00:31:55.718Z,87.87
2022-12-11T00:32:05.581Z,87.76
2022-12-11T00:32:15.593Z,87.76
2022-12-11T00:32:28.213Z,87.66
2022-12-11T00:32:37.707Z,87.66
2022-12-11T00:32:45.548Z,87.66
2022-12-11T00:32:55.554Z,87.66
2022-12-11T00:33:05.635Z,87.66
2022-12-11T00:33:15.575Z,87.66
2022-12-11T00:33:25.648Z,87.66
2022-12-11T00:33:35.577Z,87.66
2022-12-11T00:33:45.551Z,87.66
2022-12-11T00:33:55.618Z,87.66
2022-12-11T00:34:05.636Z,87.66
2022-12-11T00:34:15.600Z,87.66
2022-12-11T00:34:25.647Z,87.66
2022-12-11T00:34:35.659Z,87.66
2022-12-11T00:34:45.579Z,87.76
2022-12-11T00:34:55.648Z,87.76
2022-12-11T00:35:05.612Z,87.76
2022-12-11T00:35:15.555Z,87.87
2022-12-11T00:35:25.521Z,87.87
2022-12-11T00:35:35.650Z,87.87
2022-12-11T00:35:45.534Z,87.87
2022-12-11T00:35:55.537Z,87.97
2022-12-11T00:36:05.579Z,87.97
2022-12-11T00:36:15.594Z,87.97
2022-12-11T00:36:25.540Z,87.97
2022-12-11T00:36:35.566Z,87.97
2022-12-11T00:36:45.534Z,87.97
2022-12-11T00:36:55.564Z,87.97
2022-12-11T00:37:05.597Z,87.97
2022-12-11T00:37:15.602Z,87.93
2022-12-11T00:37:25.632Z,87.97
2022-12-11T00:37:35.618Z,87.97
2022-12-11T00:37:45.574Z,87.93
2022-12-11T00:37:56.173Z,87.87
2022-12-11T00:38:05.550Z,87.87
2022-12-11T00:38:15.554Z,87.83
2022-12-11T00:38:25.530Z,87.87
2022-12-11T00:38:35.588Z,87.97
2022-12-11T00:38:45.607Z,87.93
2022-12-11T00:38:55.526Z,87.93
2022-12-11T00:39:05.541Z,87.93
2022-12-11T00:39:15.591Z,87.93
2022-12-11T00:39:25.547Z,87.93
2022-12-11T00:39:35.615Z,87.87
2022-12-11T00:39:45.575Z,87.87
2022-12-11T00:39:55.680Z,87.87
2022-12-11T00:40:05.539Z,87.87
2022-12-11T00:40:15.546Z,87.87
2022-12-11T00:40:25.559Z,87.76
2022-12-11T00:40:35.564Z,87.76
2022-12-11T00:40:45.570Z,87.66
2022-12-11T00:40:55.643Z,87.55
2022-12-11T00:41:05.655Z,87.45
2022-12-11T00:41:15.628Z,87.45
2022-12-11T00:41:25.535Z,87.34
2022-12-11T00:41:35.558Z,87.34
2022-12-11T00:41:45.615Z,87.24
2022-12-11T00:41:55.635Z,87.24
2022-12-11T00:42:05.635Z,87.34
2022-12-11T00:42:15.541Z,87.34
2022-12-11T00:42:25.558Z,87.34
2022-12-11T00:42:35.614Z,87.45
2022-12-11T00:42:45.621Z,87.45
2022-12-11T00:42:55.612Z,87.45
2022-12-11T00:43:05.538Z,87.55
2022-12-11T00:43:15.569Z,87.55
2022-12-11T00:43:25.540Z,87.55
2022-12-11T00:43:35.564Z,87.55
2022-12-11T00:43:45.550Z,87.45
2022-12-11T00:43:55.523Z,87.45
2022-12-11T00:44:05.581Z,87.34
2022-12-11T00:44:15.602Z,87.24
2022-12-11T00:44:25.567Z,87.24
2022-12-11T00:44:35.624Z,87.24
2022-12-11T00:44:45.609Z,87.24
2022-12-11T00:44:55.604Z,87.24
2022-12-11T00:45:05.524Z,87.24
2022-12-11T00:45:15.618Z,87.34
2022-12-11T00:45:25.591Z,87.45
2022-12-11T00:45:35.662Z,87.55
2022-12-11T00:45:45.687Z,87.66
2022-12-11T00:45:55.679Z,87.76
2022-12-11T00:46:05.628Z,87.87
2022-12-11T00:46:15.669Z,87.97
2022-12-11T00:46:25.675Z,88.07
2022-12-11T00:46:35.642Z,88.18
2022-12-11T00:46:45.600Z,88.29
2022-12-11T00:46:55.562Z,88.39
2022-12-11T00:47:05.560Z,88.60
2022-12-11T00:47:15.528Z,88.81
2022-12-11T00:47:25.598Z,89.02
2022-12-11T00:47:35.610Z,89.12
2022-12-11T00:47:45.587Z,89.23
2022-12-11T00:47:58.526Z,89.23
2022-12-11T00:48:05.629Z,89.12
2022-12-11T00:48:15.609Z,89.02
2022-12-11T00:48:25.627Z,88.92
2022-12-11T00:48:35.634Z,88.71
2022-12-11T00:48:45.642Z,88.60
2022-12-11T00:48:55.608Z,88.49
2022-12-11T00:49:05.528Z,88.29
2022-12-11T00:49:15.577Z,88.18
2022-12-11T00:49:25.647Z,88.07
2022-12-11T00:49:35.599Z,88.07
2022-12-11T00:49:49.770Z,88.07
2022-12-11T00:49:58.116Z,88.07
2022-12-11T00:50:05.531Z,88.07
2022-12-11T00:50:15.600Z,88.07
2022-12-11T00:50:25.611Z,88.07
2022-12-11T00:50:35.547Z,88.22
2022-12-11T00:50:45.548Z,88.32
2022-12-11T00:50:55.567Z,88.32
2022-12-11T00:51:05.639Z,88.32
2022-12-11T00:51:15.648Z,88.32
2022-12-11T00:51:25.620Z,88.32
2022-12-11T00:51:35.557Z,88.43
2022-12-11T00:51:45.651Z,88.32
2022-12-11T00:51:55.600Z,88.32
2022-12-11T00:52:05.552Z,88.32
2022-12-11T00:52:15.622Z,88.12
2022-12-11T00:52:25.565Z,88.12
2022-12-11T00:52:35.607Z,88.12
2022-12-11T00:52:45.540Z,88.12
2022-12-11T00:52:55.573Z,88.22
2022-12-11T00:53:05.624Z,88.32
2022-12-11T00:53:15.538Z,88.43
2022-12-11T00:53:25.540Z,88.43
2022-12-11T00:53:35.603Z,88.43
2022-12-11T00:53:45.647Z,88.32
2022-12-11T00:53:55.530Z,88.32
2022-12-11T00:54:05.552Z,88.26
2022-12-11T00:54:15.531Z,88.26
2022-12-11T00:54:25.611Z,88.16
2022-12-11T00:54:35.550Z,88.12
2022-12-11T00:54:45.537Z,88.16
2022-12-11T00:54:55.572Z,88.12
2022-12-11T00:55:05.611Z,88.16
2022-12-11T00:55:15.575Z,88.16
2022-12-11T00:55:25.536Z,88.16
2022-12-11T00:55:35.651Z,88.16
2022-12-11T00:55:45.656Z,88.26
2022-12-11T00:55:55.652Z,88.32
2022-12-11T00:56:05.555Z,88.43
2022-12-11T00:56:15.582Z,88.54
2022-12-11T00:56:25.602Z,88.64
2022-12-11T00:56:35.581Z,88.75
2022-12-11T00:56:45.585Z,88.85
2022-12-11T00:56:55.656Z,88.85
2022-12-11T00:57:05.543Z,88.96
2022-12-11T00:57:15.613Z,89.06
2022-12-11T00:57:25.638Z,89.06
2022-12-11T00:57:35.574Z,89.17
2022-12-11T00:57:45.640Z,89.27
2022-12-11T00:57:55.667Z,89.37
2022-12-11T00:58:05.567Z,89.37
2022-12-11T00:58:15.645Z,89.48
2022-12-11T00:58:25.616Z,89.48
2022-12-11T00:58:35.546Z,89.48
2022-12-11T00:58:45.576Z,89.48
2022-12-11T00:58:55.648Z,89.48
2022-12-11T00:59:05.556Z,89.48
2022-12-11T00:59:15.549Z,89.48
2022-12-11T00:59:25.544Z,89.48
2022-12-11T00:59:35.651Z,89.48
2022-12-11T00:59:45.523Z,89.37
2022-12-11T00:59:55.602Z,89.37
2022-12-11T01:00:05.588Z,89.37
2022-12-11T01:00:15.544Z,89.37
2022-12-11T01:00:25.593Z,89.37
2022-12-11T01:00:35.586Z,89.27
2022-12-11T01:00:45.609Z,89.17
2022-12-11T01:00:55.570Z,89.06
2022-12-11T01:01:05.649Z,88.96
2022-12-11T01:01:15.654Z,88.85
2022-12-11T01:01:25.665Z,88.75
2022-12-11T01:01:35.666Z,88.64
2022-12-11T01:01:45.583Z,88.54
2022-12-11T01:01:55.538Z,88.43
2022-12-11T01:02:05.650Z,88.32
2022-12-11T01:02:15.604Z,88.32
2022-12-11T01:02:25.729Z,88.32
2022-12-11T01:02:35.713Z,88.43
2022-12-11T01:02:45.655Z,88.43
2022-12-11T01:02:55.667Z,88.54
2022-12-11T01:03:05.556Z,88.54
2022-12-11T01:03:15.651Z,88.64
2022-12-11T01:03:25.638Z,88.75
2022-12-11T01:03:35.570Z,88.75
2022-12-11T01:03:45.572Z,88.75
2022-12-11T01:03:55.628Z,88.75
2022-12-11T01:04:05.583Z,88.75
2022-12-11T01:04:15.629Z,88.64
2022-12-11T01:04:25.644Z,88.54
2022-12-11T01:04:35.549Z,88.54
2022-12-11T01:04:45.637Z,88.54
2022-12-11T01:04:55.551Z,88.54
2022-12-11T01:05:05.577Z,88.64
2022-12-11T01:05:15.525Z,88.64
2022-12-11T01:05:25.652Z,88.75
2022-12-11T01:05:35.545Z,88.85
2022-12-11T01:05:45.573Z,89.06
2022-12-11T01:05:55.583Z,89.17
2022-12-11T01:06:05.570Z,89.27
2022-12-11T01:06:15.654Z,89.37
2022-12-11T01:06:25.541Z,89.27
2022-12-11T01:06:35.575Z,89.06
2022-12-11T01:06:45.644Z,88.96
2022-12-11T01:06:55.565Z,88.85
2022-12-11T01:07:05.627Z,88.64
2022-12-11T01:07:15.659Z,88.64
2022-12-11T01:07:25.585Z,88.54
2022-12-11T01:07:35.617Z,88.54
2022-12-11T01:07:45.697Z,88.54
2022-12-11T01:07:56.207Z,88.54
2022-12-11T01:08:05.703Z,88.54
2022-12-11T01:08:15.730Z,88.54
2022-12-11T01:08:25.689Z,88.43
2022-12-11T01:08:38.743Z,88.43
2022-12-11T01:08:45.644Z,88.43
2022-12-11T01:08:55.538Z,88.54
2022-12-11T01:09:05.660Z,88.54
2022-12-11T01:09:15.555Z,88.64
2022-12-11T01:09:25.646Z,88.64
2022-12-11T01:09:35.635Z,88.75
2022-12-11T01:09:45.605Z,88.85
2022-12-11T01:09:55.568Z,88.85
2022-12-11T01:10:05.630Z,88.96
2022-12-11T01:10:15.640Z,88.96
2022-12-11T01:10:25.760Z,88.96
2022-12-11T01:10:35.599Z,88.96
2022-12-11T01:10:45.626Z,88.96
2022-12-11T01:10:55.639Z,88.96
2022-12-11T01:11:05.655Z,88.96
2022-12-11T01:11:15.586Z,88.96
2022-12-11T01:11:25.585Z,88.96
2022-12-11T01:11:35.538Z,88.85
2022-12-11T01:11:45.534Z,88.85
2022-12-11T01:11:55.606Z,88.85
2022-12-11T01:12:05.565Z,88.85
2022-12-11T01:12:15.619Z,88.75
2022-12-11T01:12:25.569Z,88.75
2022-12-11T01:12:35.568Z,88.85
2022-12-11T01:12:45.587Z,88.85
2022-12-11T01:12:55.649Z,88.85
2022-12-11T01:13:05.573Z,88.85
2022-12-11T01:13:15.621Z,88.85
2022-12-11T01:13:25.658Z,88.85
2022-12-11T01:13:35.580Z,88.96
2022-12-11T01:13:45.526Z,88.96
2022-12-11T01:13:55.646Z,88.96
2022-12-11T01:14:05.650Z,88.85
2022-12-11T01:14:15.596Z,88.85
2022-12-11T01:14:25.540Z,88.85
2022-12-11T01:14:35.593Z,88.85
2022-12-11T01:14:45.650Z,88.75
2022-12-11T01:14:55.658Z,88.75
2022-12-11T01:15:05.597Z,88.75
2022-12-11T01:15:15.545Z,88.75
2022-12-11T01:15:25.606Z,88.75
2022-12-11T01:15:41.099Z,88.75
2022-12-11T01:15:45.575Z,88.75
2022-12-11T01:15:55.583Z,88.85
2022-12-11T01:16:05.653Z,88.85
2022-12-11T01:16:15.705Z,88.85
2022-12-11T01:16:25.611Z,88.75
2022-12-11T01:16:35.650Z,88.75
2022-12-11T01:16:45.633Z,88.75
2022-12-11T01:16:55.641Z,88.64
2022-12-11T01:17:05.645Z,88.64
2022-12-11T01:17:15.542Z,88.54
2022-12-11T01:17:25.575Z,88.43
2022-12-11T01:17:35.525Z,88.43
2022-12-11T01:17:45.607Z,88.43
2022-12-11T01:17:55.652Z,88.32
2022-12-11T01:18:05.604Z,88.43
2022-12-11T01:18:15.571Z,88.43
2022-12-11T01:18:25.619Z,88.54
2022-12-11T01:18:35.606Z,88.64
2022-12-11T01:18:45.621Z,88.75
2022-12-11T01:18:55.548Z,88.75
2022-12-11T01:19:05.559Z,88.85
2022-12-11T01:19:15.627Z,88.85
2022-12-11T01:19:25.536Z,88.96
2022-12-11T01:19:35.602Z,88.96
2022-12-11T01:19:45.658Z,88.96
2022-12-11T01:19:55.636Z,88.96
2022-12-11T01:20:05.626Z,88.96
2022-12-11T01:20:15.553Z,88.96
2022-12-11T01:20:25.648Z,89.06
2022-12-11T01:20:35.538Z,89.06
2022-12-11T01:20:45.637Z,89.06
2022-12-11T01:20:55.628Z,89.06
2022-12-11T01:21:05.588Z,89.06
2022-12-11T01:21:15.537Z,89.17
2022-12-11T01:21:25.633Z,89.17
2022-12-11T01:21:35.618Z,89.17
2022-12-11T01:21:45.625Z,89.17
2022-12-11T01:21:55.639Z,89.17
2022-12-11T01:22:05.565Z,89.17
2022-12-11T01:22:15.645Z,89.17
2022-12-11T01:22:25.574Z,89.17
2022-12-11T01:22:35.617Z,89.12
2022-12-11T01:22:45.530Z,89.06
2022-12-11T01:22:55.609Z,89.06
2022-12-11T01:23:05.542Z,89.06
2022-12-11T01:23:15.573Z,88.96
2022-12-11T01:23:25.587Z,88.75
2022-12-11T01:23:35.537Z,88.64
2022-12-11T01:23:45.537Z,88.54
2022-12-11T01:23:55.592Z,88.43
2022-12-11T01:24:05.609Z,88.32
2022-12-11T01:24:15.648Z,88.32
2022-12-11T01:24:25.591Z,88.22
2022-12-11T01:24:35.612Z,88.22
2022-12-11T01:24:45.620Z,88.22
2022-12-11T01:24:55.621Z,88.22
2022-12-11T01:25:05.551Z,88.32
2022-12-11T01:25:15.556Z,88.32
2022-12-11T01:25:25.645Z,88.43
2022-12-11T01:25:35.567Z,88.43
2022-12-11T01:25:45.579Z,88.43
2022-12-11T01:25:55.540Z,88.49
2022-12-11T01:26:05.581Z,88.49
2022-12-11T01:26:15.616Z,88.60
2022-12-11T01:26:25.598Z,88.60
2022-12-11T01:26:35.582Z,88.60
2022-12-11T01:26:45.669Z,88.60
2022-12-11T01:26:55.601Z,88.60
2022-12-11T01:27:05.596Z,88.71
2022-12-11T01:27:15.537Z,88.71
2022-12-11T01:27:25.622Z,88.81
2022-12-11T01:27:35.645Z,88.81
2022-12-11T01:27:45.626Z,88.71
2022-12-11T01:27:56.169Z,88.71
2022-12-11T01:28:05.637Z,88.71
2022-12-11T01:28:15.661Z,88.71
2022-12-11T01:28:25.609Z,88.71
2022-12-11T01:28:35.658Z,88.71
2022-12-11T01:28:45.557Z,88.71
2022-12-11T01:28:55.553Z,88.60
2022-12-11T01:29:05.593Z,88.60
2022-12-11T01:29:15.522Z,88.60
2022-12-11T01:29:25.594Z,88.60
2022-12-11T01:29:35.595Z,88.60
2022-12-11T01:29:45.528Z,88.60
2022-12-11T01:29:55.602Z,88.60
2022-12-11T01:30:05.590Z,88.71
2022-12-11T01:30:15.593Z,88.60
2022-12-11T01:30:25.602Z,88.60
2022-12-11T01:30:35.591Z,88.39
2022-12-11T01:30:45.763Z,88.18
2022-12-11T01:30:55.669Z,88.07
2022-12-11T01:31:05.667Z,87.97
2022-12-11T01:31:15.609Z,87.87
2022-12-11T01:31:25.585Z,87.87
2022-12-11T01:31:35.633Z,87.76
2022-12-11T01:31:45.650Z,87.66
2022-12-11T01:31:55.558Z,87.55
2022-12-11T01:32:05.590Z,87.45
2022-12-11T01:32:15.579Z,87.45
2022-12-11T01:32:25.582Z,87.45
2022-12-11T01:32:35.563Z,87.55
2022-12-11T01:32:45.532Z,87.55
2022-12-11T01:32:55.561Z,87.66
2022-12-11T01:33:05.589Z,87.66
2022-12-11T01:33:15.579Z,87.66
2022-12-11T01:33:25.581Z,87.66
2022-12-11T01:33:35.645Z,87.66
2022-12-11T01:33:45.666Z,87.66
2022-12-11T01:33:55.617Z,87.66
2022-12-11T01:34:05.640Z,87.66
2022-12-11T01:34:15.560Z,87.76
2022-12-11T01:34:25.538Z,87.76
2022-12-11T01:34:35.526Z,87.87
2022-12-11T01:34:45.554Z,87.87
2022-12-11T01:34:55.614Z,87.97
2022-12-11T01:35:05.594Z,87.97
2022-12-11T01:35:15.635Z,87.97
2022-12-11T01:35:25.647Z,87.97
2022-12-11T01:35:35.610Z,87.97
2022-12-11T01:35:45.590Z,87.97
2022-12-11T01:35:55.568Z,87.97
2022-12-11T01:36:05.542Z,87.87
2022-12-11T01:36:15.594Z,87.87
2022-12-11T01:36:25.651Z,87.76
2022-12-11T01:36:35.647Z,87.76
2022-12-11T01:36:45.548Z,87.76
2022-12-11T01:36:55.681Z,87.66
2022-12-11T01:37:05.659Z,87.66
2022-12-11T01:37:15.629Z,87.66
2022-12-11T01:37:25.559Z,87.66
2022-12-11T01:37:35.596Z,87.80
2022-12-11T01:37:45.592Z,87.80
2022-12-11T01:37:55.546Z,87.91
2022-12-11T01:38:05.592Z,87.91
2022-12-11T01:38:15.563Z,87.91
2022-12-11T01:38:25.532Z,88.01
2022-12-11T01:38:35.554Z,88.01
2022-12-11T01:38:45.625Z,87.97
2022-12-11T01:38:55.647Z,88.12
2022-12-11T01:39:05.550Z,88.07
2022-12-11T01:39:15.603Z,88.22
2022-12-11T01:39:25.654Z,88.22
2022-12-11T01:39:35.559Z,88.22
2022-12-11T01:39:45.560Z,88.18
2022-12-11T01:39:55.626Z,88.18
2022-12-11T01:40:05.595Z,88.22
2022-12-11T01:40:15.615Z,88.22
2022-12-11T01:40:25.635Z,88.18
2022-12-11T01:40:35.541Z,88.12
2022-12-11T01:40:45.568Z,88.12
2022-12-11T01:40:55.631Z,88.12
2022-12-11T01:41:05.652Z,88.12
2022-12-11T01:41:15.584Z,88.12
2022-12-11T01:41:25.595Z,88.12
2022-12-11T01:41:35.632Z,88.22
2022-12-11T01:41:45.579Z,88.22
2022-12-11T01:41:55.561Z,88.32
2022-12-11T01:42:05.570Z,88.43
2022-12-11T01:42:15.567Z,88.64
2022-12-11T01:42:25.573Z,88.75
2022-12-11T01:42:35.591Z,88.75
2022-12-11T01:42:45.586Z,88.85
2022-12-11T01:42:55.608Z,88.85
2022-12-11T01:43:05.610Z,88.96
2022-12-11T01:43:15.526Z,88.96
2022-12-11T01:43:25.539Z,88.96
2022-12-11T01:43:35.657Z,88.96
2022-12-11T01:43:45.573Z,88.96
2022-12-11T01:43:55.523Z,88.96
2022-12-11T01:44:05.561Z,88.96
2022-12-11T01:44:15.649Z,88.96
2022-12-11T01:44:25.580Z,88.96
2022-12-11T01:44:35.546Z,89.00
2022-12-11T01:44:45.525Z,88.89
2022-12-11T01:44:55.566Z,88.89
2022-12-11T01:45:05.652Z,88.79
2022-12-11T01:45:15.654Z,88.79
2022-12-11T01:45:27.119Z,88.68
2022-12-11T01:45:35.585Z,88.68
2022-12-11T01:45:45.550Z,88.68
2022-12-11T01:45:55.678Z,88.68
2022-12-11T01:46:05.672Z,88.68
2022-12-11T01:46:15.608Z,88.68
2022-12-11T01:46:25.683Z,88.79
2022-12-11T01:46:35.655Z,88.79
2022-12-11T01:46:45.588Z,89.00
2022-12-11T01:46:55.540Z,89.10
2022-12-11T01:47:05.544Z,89.21
2022-12-11T01:47:15.644Z,89.31
2022-12-11T01:47:25.596Z,89.31
2022-12-11T01:47:35.640Z,89.42
2022-12-11T01:47:45.565Z,89.37
2022-12-11T01:47:55.550Z,89.42
2022-12-11T01:48:05.589Z,89.48
2022-12-11T01:48:15.605Z,89.48
2022-12-11T01:48:25.615Z,89.48
2022-12-11T01:48:40.681Z,89.48
2022-12-11T01:48:45.543Z,89.59
2022-12-11T01:48:55.571Z,89.59
2022-12-11T01:49:05.604Z,89.69
2022-12-11T01:49:15.610Z,89.69
2022-12-11T01:49:25.580Z,89.59
2022-12-11T01:49:35.590Z,89.37
2022-12-11T01:49:45.544Z,89.27
2022-12-11T01:49:55.562Z,89.17
2022-12-11T01:50:05.626Z,89.06
2022-12-11T01:50:15.579Z,89.06
2022-12-11T01:50:25.656Z,89.00
2022-12-11T01:50:35.658Z,88.89
2022-12-11T01:50:45.533Z,88.89
2022-12-11T01:50:55.553Z,88.89
2022-12-11T01:51:05.525Z,88.89
2022-12-11T01:51:15.605Z,88.79
2022-12-11T01:51:25.535Z,88.68
2022-12-11T01:51:35.538Z,88.47
2022-12-11T01:51:45.666Z,88.47
2022-12-11T01:51:55.522Z,88.37
2022-12-11T01:52:05.656Z,88.37
2022-12-11T01:52:15.544Z,88.26
2022-12-11T01:52:25.553Z,88.37
2022-12-11T01:52:35.622Z,88.37
2022-12-11T01:52:45.539Z,88.37
2022-12-11T01:52:55.586Z,88.47
2022-12-11T01:53:05.578Z,88.47
2022-12-11T01:53:15.604Z,88.57
2022-12-11T01:53:25.657Z,88.57
2022-12-11T01:53:35.571Z,88.68
2022-12-11T01:53:45.566Z,88.79
2022-12-11T01:53:55.526Z,88.89
2022-12-11T01:54:05.583Z,89.00
2022-12-11T01:54:15.647Z,89.10
2022-12-11T01:54:25.555Z,89.31
2022-12-11T01:54:35.531Z,89.42
2022-12-11T01:54:45.604Z,89.52
2022-12-11T01:54:55.555Z,89.52
2022-12-11T01:55:05.659Z,89.59
2022-12-11T01:55:15.650Z,89.59
2022-12-11T01:55:25.638Z,89.48
2022-12-11T01:55:35.572Z,89.48
2022-12-11T01:55:45.633Z,89.37
2022-12-11T01:55:55.557Z,89.17
2022-12-11T01:56:05.541Z,88.96
2022-12-11T01:56:15.640Z,88.85
2022-12-11T01:56:25.624Z,88.75
2022-12-11T01:56:35.578Z,88.64
2022-12-11T01:56:45.570Z,88.64
2022-12-11T01:56:55.534Z,88.64
2022-12-11T01:57:05.624Z,88.54
2022-12-11T01:57:15.616Z,88.43
2022-12-11T01:57:25.523Z,88.43
2022-12-11T01:57:35.616Z,88.43
2022-12-11T01:57:45.656Z,88.43
2022-12-11T01:58:00.512Z,88.43
2022-12-11T01:58:05.634Z,88.32
2022-12-11T01:58:15.528Z,88.32
2022-12-11T01:58:28.230Z,88.32
2022-12-11T01:58:35.637Z,88.22
2022-12-11T01:58:45.658Z,88.12
2022-12-11T01:58:55.630Z,88.01
2022-12-11T01:59:05.533Z,88.01
2022-12-11T01:59:15.534Z,88.01
2022-12-11T01:59:25.561Z,88.01
2022-12-11T01:59:35.585Z,88.05
2022-12-11T01:59:45.559Z,88.16
2022-12-11T01:59:55.543Z,88.12
2022-12-11T02:00:05.600Z,88.16
2022-12-11T02:00:15.627Z,88.16
2022-12-11T02:00:25.590Z,88.12
2022-12-11T02:00:35.526Z,88.16
2022-12-11T02:00:45.638Z,88.26
2022-12-11T02:00:55.677Z,88.22
2022-12-11T02:01:05.658Z,88.32
2022-12-11T02:01:15.697Z,88.37
2022-12-11T02:01:25.694Z,88.37
2022-12-11T02:01:35.598Z,88.43
2022-12-11T02:01:45.613Z,88.54
2022-12-11T02:01:55.604Z,88.64
2022-12-11T02:02:05.713Z,88.75
2022-12-11T02:02:15.603Z,88.85
2022-12-11T02:02:25.569Z,88.96
2022-12-11T02:02:35.611Z,88.96
2022-12-11T02:02:45.729Z,88.85
2022-12-11T02:02:55.680Z,88.85
2022-12-11T02:03:05.643Z,88.85
2022-12-11T02:03:15.527Z,88.75
2022-12-11T02:03:25.592Z,88.75
2022-12-11T02:03:35.528Z,88.75
2022-12-11T02:03:45.637Z,88.85
2022-12-11T02:03:55.639Z,88.85
2022-12-11T02:04:05.646Z,88.85
2022-12-11T02:04:15.543Z,88.85
2022-12-11T02:04:25.560Z,88.75
2022-12-11T02:04:35.641Z,88.64
2022-12-11T02:04:45.558Z,88.54
2022-12-11T02:04:55.578Z,88.43
2022-12-11T02:05:05.634Z,88.32
2022-12-11T02:05:15.624Z,88.22
2022-12-11T02:05:25.602Z,88.22
2022-12-11T02:05:35.538Z,88.12
2022-12-11T02:05:45.597Z,88.12
2022-12-11T02:05:55.624Z,88.22
2022-12-11T02:06:05.559Z,88.12
2022-12-11T02:06:15.637Z,88.12
2022-12-11T02:06:25.601Z,88.01
2022-12-11T02:06:35.648Z,88.01
2022-12-11T02:06:45.546Z,88.01
2022-12-11T02:06:55.546Z,88.12
2022-12-11T02:07:05.584Z,88.22
2022-12-11T02:07:15.581Z,88.32
2022-12-11T02:07:25.572Z,88.43
2022-12-11T02:07:35.525Z,88.43
2022-12-11T02:07:45.660Z,88.43
2022-12-11T02:08:00.569Z,88.54
2022-12-11T02:08:05.705Z,88.64
2022-12-11T02:08:15.568Z,88.64
2022-12-11T02:08:25.579Z,88.75
2022-12-11T02:08:35.535Z,88.75
2022-12-11T02:08:45.540Z,88.75